Time;durP1;ratioP1;P1;durP2;ratioP2;P2;SDS_P1;SDS_P2;PMS_P1;PMS_P2;Temp;Humidity;BMP_temperature;BMP_pressure;BME280_temperature;BME280_humidity;BME280_pressure;Samples;Min_cycle;Max_cycle;Signal;HPM_P1;HPM_P2
2022/02/01 00:02:28;;;;;;;7.95;3.87;;;;;;;6.04;56.31;98926.16;4361435;32;32705;-82
2022/02/01 00:05:13;;;;;;;12.13;4.37;;;;;;;5.62;57.62;98924.22;4356819;32;33930;-82
2022/02/01 00:07:51;;;;;;;11.95;5.20;;;;;;;5.70;57.54;98924.81;4359362;32;34836;-82
2022/02/01 00:13:07;;;;;;;10.18;5.18;;;;;;;5.79;57.27;98923.56;4362365;32;34207;-82
2022/02/01 00:37:22;;;;;;;13.07;5.75;;;;;;;5.45;57.79;98922.22;4375475;32;33554;-82
2022/02/01 00:39:56;;;;;;;17.60;6.07;;;;;;;5.62;57.25;98924.22;4361147;32;33335;-82
2022/02/01 00:42:24;;;;;;;17.95;6.15;;;;;;;5.50;57.52;98925.53;4362167;32;33552;-82
2022/02/01 00:44:52;;;;;;;18.85;6.18;;;;;;;5.42;57.81;98932.81;4362992;32;33051;-82
2022/02/01 00:47:19;;;;;;;14.10;5.85;;;;;;;5.52;57.50;98928.97;4362940;32;33307;-82
2022/02/01 00:49:48;;;;;;;15.30;5.50;;;;;;;5.52;57.51;98928.09;4349296;32;34752;-82
2022/02/01 00:52:16;;;;;;;18.25;7.32;;;;;;;5.48;57.73;98940.44;4363224;32;33150;-82
2022/02/01 00:54:44;;;;;;;15.80;6.32;;;;;;;5.40;58.05;98930.25;4350397;32;33646;-83
2022/02/01 00:57:13;;;;;;;12.95;6.05;;;;;;;5.52;58.03;98939.44;4363233;32;34409;-83
2022/02/01 00:59:42;;;;;;;18.12;6.50;;;;;;;5.59;57.74;98929.56;4375247;32;33385;-83
2022/02/01 01:02:10;;;;;;;14.43;5.47;;;;;;;5.34;58.84;98929.62;4375091;32;32882;-83
2022/02/01 01:04:38;;;;;;;13.88;5.97;;;;;;;5.40;58.85;98940.72;4363000;32;34533;-83
2022/02/01 01:07:05;;;;;;;17.15;5.60;;;;;;;5.24;59.35;98931.72;4348528;32;33044;-83
2022/02/01 01:09:33;;;;;;;10.88;5.78;;;;;;;5.56;58.30;98924.47;4362491;32;33064;-83
2022/02/01 01:12:01;;;;;;;13.13;6.50;;;;;;;5.72;57.52;98922.97;4362668;32;34029;-83
2022/02/01 01:14:53;;;;;;;9.38;4.37;;;;;;;5.36;58.37;98926.06;4350573;32;34469;-83
2022/02/01 01:45:09;;;;;;;13.32;5.70;;;;;;;5.30;58.96;98900.09;4372779;32;33661;-81
2022/02/01 01:53:14;;;;;;;7.32;4.68;;;;;;;5.25;59.85;98894.16;4373556;32;32299;-81
2022/02/01 01:55:48;;;;;;;8.77;4.00;;;;;;;5.11;60.69;98901.66;4354357;32;33598;-81
2022/02/01 01:58:17;;;;;;;12.82;4.50;;;;;;;5.20;60.91;98900.47;4358514;32;33701;-81
2022/02/01 02:03:14;;;;;;;7.47;4.57;;;;;;;5.68;59.42;98899.56;4361112;32;33021;-81
2022/02/01 02:05:43;;;;;;;6.82;3.42;;;;;;;5.43;60.05;98904.88;4372466;32;33653;-81
2022/02/01 02:08:12;;;;;;;8.10;3.95;;;;;;;5.29;60.39;98902.75;4358137;32;32296;-81
2022/02/01 02:10:52;;;;;;;9.23;3.80;;;;;;;5.37;60.43;98917.28;4360380;32;33097;-81
2022/02/01 02:18:30;;;;;;;10.80;4.37;;;;;;;5.89;58.88;98919.72;4368696;32;33587;-82
2022/02/01 02:21:00;;;;;;;7.40;4.45;;;;;;;5.77;59.17;98913.16;4361963;32;33988;-82
2022/02/01 02:23:28;;;;;;;8.60;4.15;;;;;;;5.63;59.31;98904.97;4364221;32;33428;-82
2022/02/01 02:25:56;;;;;;;10.20;4.25;;;;;;;5.57;59.34;98915.69;4363150;32;32520;-82
2022/02/01 02:28:24;;;;;;;7.07;4.55;;;;;;;5.46;59.92;98917.84;4363991;32;32351;-82
2022/02/01 02:30:52;;;;;;;12.70;4.28;;;;;;;5.64;59.49;98914.53;4376569;32;34013;-82
2022/02/01 02:33:20;;;;;;;10.63;4.68;;;;;;;5.38;60.27;98926.84;4375198;32;34826;-82
2022/02/01 02:36:02;;;;;;;9.23;4.50;;;;;;;5.57;59.82;98923.56;4363234;32;34625;-82
2022/02/01 02:46:38;;;;;;;8.10;5.00;;;;;;;5.84;59.02;98940.84;4376999;32;33031;-81
2022/02/01 02:49:07;;;;;;;15.85;6.12;;;;;;;5.73;59.22;98937.75;4364114;32;33254;-82
2022/02/01 02:51:35;;;;;;;12.07;6.22;;;;;;;5.60;59.73;98944.38;4376465;32;34752;-82
2022/02/01 02:54:12;;;;;;;11.68;6.03;;;;;;;5.68;59.67;98950.19;4376727;32;34074;-81
2022/02/01 02:56:45;;;;;;;9.18;5.40;;;;;;;5.60;60.25;98950.47;4364026;32;32489;-82
2022/02/01 02:59:14;;;;;;;9.57;4.40;;;;;;;5.16;61.84;98952.06;4363755;32;32743;-82
2022/02/01 03:01:47;;;;;;;11.45;5.10;;;;;;;5.36;61.58;98960.09;4377164;32;33779;-82
2022/02/01 03:04:20;;;;;;;5.78;4.15;;;;;;;5.52;61.12;98959.53;4364890;32;33000;-82
2022/02/01 03:06:48;;;;;;;10.60;4.68;;;;;;;5.63;60.56;98955.59;4364759;32;32623;-83
2022/02/01 03:09:19;;;;;;;8.52;4.97;;;;;;;5.64;60.57;98961.69;4364359;32;33391;-83
2022/02/01 03:11:48;;;;;;;12.15;4.22;;;;;;;5.74;60.46;98963.03;4376588;32;33865;-83
2022/02/01 03:14:28;;;;;;;8.32;4.10;;;;;;;5.47;61.42;98961.47;4376177;32;32837;-83
2022/02/01 03:19:49;;;;;;;7.50;5.00;;;;;;;5.55;61.75;98969.88;4365067;32;33665;-82
2022/02/01 03:22:19;;;;;;;7.70;4.32;;;;;;;5.56;61.63;98968.97;4362339;32;34035;-83
2022/02/01 03:24:48;;;;;;;7.05;4.80;;;;;;;5.93;60.42;98954.53;4373518;32;34771;-82
2022/02/01 03:27:16;;;;;;;6.82;4.60;;;;;;;5.78;60.72;98967.25;4363969;32;32396;-82
2022/02/01 03:29:44;;;;;;;7.65;4.40;;;;;;;5.93;60.29;98971.09;4376774;32;33119;-82
2022/02/01 03:32:11;;;;;;;11.18;4.93;;;;;;;6.02;60.19;98975.97;4360353;32;32210;-82
2022/02/01 03:34:39;;;;;;;8.43;4.95;;;;;;;5.96;60.33;98975.38;4351225;32;33531;-83
2022/02/01 03:37:07;;;;;;;9.27;4.82;;;;;;;5.86;60.45;98978.31;4376106;32;34395;-82
2022/02/01 03:39:35;;;;;;;10.23;4.80;;;;;;;5.68;60.88;98979.00;4361369;32;33478;-81
2022/02/01 03:42:03;;;;;;;7.75;4.93;;;;;;;5.65;61.27;98979.13;4375306;32;33944;-81
2022/02/01 03:44:32;;;;;;;7.75;4.68;;;;;;;5.59;61.62;98982.78;4375855;32;33376;-82
2022/02/01 03:47:03;;;;;;;10.45;5.10;;;;;;;5.47;61.74;98985.03;4362844;32;33108;-82
2022/02/01 03:49:36;;;;;;;9.18;5.12;;;;;;;5.77;61.06;98983.88;4351306;32;32873;-81
2022/02/01 03:52:05;;;;;;;11.73;6.55;;;;;;;5.87;60.55;98979.16;4363526;32;33174;-81
2022/02/01 03:54:34;;;;;;;12.57;5.50;;;;;;;5.64;61.06;98977.38;4363068;32;34032;-81
2022/02/01 03:57:05;;;;;;;8.55;4.82;;;;;;;5.79;60.41;98982.09;4376352;32;34584;-81
2022/02/01 03:59:33;;;;;;;11.00;5.50;;;;;;;6.07;59.84;98975.81;4376185;32;33760;-81
2022/02/01 04:02:01;;;;;;;7.65;4.25;;;;;;;6.01;60.00;98978.69;4363834;32;34829;-82
2022/02/01 04:04:31;;;;;;;12.13;4.87;;;;;;;5.92;60.13;98964.16;4376293;32;34461;-82
2022/02/01 04:06:59;;;;;;;11.27;5.22;;;;;;;5.81;60.30;98980.25;4361966;32;32588;-82
2022/02/01 04:09:27;;;;;;;8.13;4.87;;;;;;;6.19;59.14;98988.44;4363773;32;32617;-82
2022/02/01 04:11:58;;;;;;;12.98;5.82;;;;;;;5.56;60.69;99009.13;4363524;32;33770;-82
2022/02/01 04:14:31;;;;;;;11.15;5.28;;;;;;;6.16;59.38;99014.78;4376160;32;34759;-82
2022/02/01 04:17:03;;;;;;;8.02;4.70;;;;;;;6.08;59.75;99016.84;4376122;32;34329;-82
2022/02/01 04:19:32;;;;;;;6.90;4.90;;;;;;;6.07;59.73;99010.72;4376051;32;34710;-82
2022/02/01 04:22:03;;;;;;;8.60;5.45;;;;;;;5.93;60.29;99009.53;4376126;32;34135;-82
2022/02/01 04:24:37;;;;;;;10.35;5.72;;;;;;;6.11;59.83;99007.09;4350962;32;33866;-82
2022/02/01 04:27:07;;;;;;;8.93;5.18;;;;;;;5.73;61.21;99012.88;4375358;32;32844;-81
2022/02/01 04:29:39;;;;;;;9.63;5.85;;;;;;;5.70;61.43;99020.84;4363144;32;33765;-81
2022/02/01 04:32:07;;;;;;;9.93;5.32;;;;;;;5.99;60.65;99014.56;4350077;32;32953;-81
2022/02/01 04:34:35;;;;;;;10.30;5.97;;;;;;;6.01;60.53;99015.38;4338297;32;32336;-81
2022/02/01 04:37:02;;;;;;;11.77;5.55;;;;;;;6.11;60.39;99017.56;4349863;32;32645;-82
2022/02/01 04:39:30;;;;;;;10.45;6.20;;;;;;;6.44;59.41;99029.44;4349386;32;32810;-82
2022/02/01 04:41:58;;;;;;;12.20;6.55;;;;;;;6.44;59.38;99034.69;4348997;32;33688;-82
2022/02/01 04:44:27;;;;;;;12.10;6.32;;;;;;;6.31;59.85;99043.00;4363205;32;33266;-82
2022/02/01 04:46:55;;;;;;;10.32;6.03;;;;;;;6.20;60.15;99044.34;4363148;32;32643;-83
2022/02/01 04:49:23;;;;;;;11.48;6.87;;;;;;;5.82;61.14;99047.44;4358552;32;32575;-83
2022/02/01 04:51:50;;;;;;;10.35;5.95;;;;;;;5.70;61.57;99050.53;4349679;32;33443;-83
2022/02/01 04:54:18;;;;;;;8.60;5.97;;;;;;;5.59;61.47;99050.03;4348223;32;33924;-83
2022/02/01 04:56:46;;;;;;;11.27;6.60;;;;;;;5.57;61.88;99059.72;4363346;32;33545;-83
2022/02/01 04:59:13;;;;;;;8.15;5.32;;;;;;;5.67;61.50;99062.87;4350034;32;32761;-82
2022/02/01 05:01:41;;;;;;;14.80;7.40;;;;;;;5.29;62.48;99065.91;4346807;32;34004;-82
2022/02/01 05:04:10;;;;;;;13.25;6.75;;;;;;;5.59;61.63;99065.75;4362579;32;34273;-82
2022/02/01 05:06:38;;;;;;;11.12;6.40;;;;;;;5.66;61.55;99069.88;4363283;32;33623;-82
2022/02/01 05:09:06;;;;;;;11.23;6.55;;;;;;;5.88;60.52;99068.16;4349549;32;34546;-82
2022/02/01 05:11:34;;;;;;;10.20;6.60;;;;;;;5.39;61.90;99077.75;4358404;32;33872;-82
2022/02/01 05:14:07;;;;;;;12.40;6.85;;;;;;;5.62;61.23;99079.59;4330565;32;34115;-82
2022/02/01 05:21:59;;;;;;;14.32;7.72;;;;;;;5.65;60.92;99081.25;4351771;32;33999;-82
2022/02/01 05:24:27;;;;;;;11.90;6.93;;;;;;;5.84;59.84;99098.03;4358928;32;34223;-83
2022/02/01 05:26:56;;;;;;;13.40;7.32;;;;;;;5.96;59.48;99101.16;4345952;32;33999;-83
2022/02/01 05:29:24;;;;;;;13.35;7.07;;;;;;;5.58;60.08;99100.72;4346344;32;33649;-82
2022/02/01 05:31:52;;;;;;;12.63;7.80;;;;;;;5.76;59.96;99101.84;4356632;32;32746;-83
2022/02/01 05:34:20;;;;;;;11.40;7.25;;;;;;;5.68;59.99;99102.09;4357717;32;35059;-82
2022/02/01 05:36:49;;;;;;;12.18;7.22;;;;;;;5.72;59.87;99103.69;4355125;32;33607;-82
2022/02/01 05:39:23;;;;;;;10.73;6.65;;;;;;;5.74;59.66;99112.34;4357075;32;33713;-82
2022/02/01 05:41:52;;;;;;;14.10;6.90;;;;;;;5.62;59.92;99128.50;4339651;32;33446;-82
2022/02/01 05:44:20;;;;;;;11.60;6.80;;;;;;;5.73;59.53;99136.84;4358198;32;34151;-83
2022/02/01 05:46:48;;;;;;;10.13;7.07;;;;;;;5.88;59.09;99141.53;4357319;32;32898;-83
2022/02/01 05:49:17;;;;;;;9.45;6.30;;;;;;;5.63;59.58;99145.94;4357581;32;32661;-82
2022/02/01 05:51:49;;;;;;;13.80;7.70;;;;;;;5.77;59.26;99161.16;4355047;32;34415;-82
2022/02/01 05:54:18;;;;;;;13.48;7.45;;;;;;;5.69;59.40;99165.81;4346451;32;34017;-83
2022/02/01 05:56:45;;;;;;;17.05;7.85;;;;;;;5.67;59.54;99173.72;4356559;32;33585;-83
2022/02/01 05:59:13;;;;;;;17.73;8.57;;;;;;;5.79;59.10;99172.44;4355706;32;32774;-82
2022/02/01 06:01:40;;;;;;;14.77;8.40;;;;;;;5.67;59.44;99181.59;4342704;32;33712;-83
2022/02/01 06:04:09;;;;;;;11.90;7.57;;;;;;;5.64;59.63;99173.81;4353882;32;34061;-82
2022/02/01 06:06:36;;;;;;;13.93;8.18;;;;;;;5.70;59.56;99178.00;4353615;32;33942;-83
2022/02/01 06:09:04;;;;;;;19.77;9.13;;;;;;;5.85;59.14;99185.34;4357324;32;33859;-81
2022/02/01 06:11:32;;;;;;;11.52;7.22;;;;;;;5.77;59.29;99190.84;4357719;32;33521;-81
2022/02/01 06:13:59;;;;;;;12.80;7.68;;;;;;;5.70;59.53;99194.59;4344194;32;33037;-82
2022/02/01 06:16:27;;;;;;;17.55;9.00;;;;;;;5.78;59.28;99196.94;4346621;32;34390;-82
2022/02/01 06:18:55;;;;;;;15.10;7.65;;;;;;;5.79;59.31;99204.75;4358020;32;32841;-82
2022/02/01 06:21:24;;;;;;;16.37;7.87;;;;;;;5.62;59.98;99204.44;4357211;32;34409;-82
2022/02/01 06:23:52;;;;;;;21.30;9.88;;;;;;;5.65;59.85;99210.47;4367618;32;33892;-84
2022/02/01 06:26:22;;;;;;;15.98;9.35;;;;;;;5.84;59.43;99212.44;4369750;32;33782;-83
2022/02/01 06:28:50;;;;;;;18.95;9.20;;;;;;;5.53;60.58;99228.31;4335908;32;34081;-84
2022/02/01 06:31:17;;;;;;;14.52;8.85;;;;;;;5.79;59.83;99238.81;4361052;32;33294;-84
2022/02/01 06:33:45;;;;;;;13.38;8.90;;;;;;;5.81;59.77;99229.13;4376806;32;33797;-83
2022/02/01 06:36:12;;;;;;;18.65;9.38;;;;;;;5.94;59.36;99239.25;4361122;32;33503;-84
2022/02/01 06:38:40;;;;;;;18.95;8.90;;;;;;;5.92;59.66;99230.56;4363170;32;33930;-84
2022/02/01 06:41:20;;;;;;;16.58;8.40;;;;;;;6.04;59.32;99240.63;4362699;32;33040;-83
2022/02/01 06:43:47;;;;;;;17.45;8.57;;;;;;;5.92;59.78;99247.13;4358996;32;33414;-83
2022/02/01 06:46:15;;;;;;;14.27;8.57;;;;;;;5.99;59.51;99253.03;4363103;32;33919;-83
2022/02/01 06:48:43;;;;;;;16.10;8.93;;;;;;;6.14;59.11;99253.37;4363718;32;33394;-84
2022/02/01 06:51:16;;;;;;;16.90;8.95;;;;;;;6.10;59.21;99257.00;4363371;32;33609;-83
2022/02/01 06:53:45;;;;;;;15.55;8.57;;;;;;;5.96;59.74;99279.34;4363996;32;36069;-83
2022/02/01 06:56:23;;;;;;;16.98;8.77;;;;;;;5.80;60.25;99287.69;4347039;32;32315;-83
2022/02/01 06:58:51;;;;;;;18.70;9.02;;;;;;;6.03;59.91;99301.81;4350789;32;33013;-83
2022/02/01 07:01:18;;;;;;;17.62;8.30;;;;;;;5.82;60.60;99304.19;4352072;32;33420;-83
2022/02/01 07:03:46;;;;;;;16.10;8.75;;;;;;;5.75;61.07;99307.94;4375735;32;33960;-83
2022/02/01 07:06:14;;;;;;;19.02;8.75;;;;;;;6.00;60.46;99320.28;4375785;32;33668;-84
2022/02/01 07:08:45;;;;;;;15.00;7.62;;;;;;;5.85;60.90;99318.97;4354587;32;32495;-83
2022/02/01 07:11:16;;;;;;;17.30;8.25;;;;;;;6.16;59.91;99316.22;4340383;32;33482;-84
2022/02/01 07:13:46;;;;;;;12.48;7.45;;;;;;;6.05;60.11;99326.22;4350298;32;33059;-83
2022/02/01 07:16:15;;;;;;;15.75;8.77;;;;;;;5.99;60.51;99327.28;4363602;32;33804;-83
2022/02/01 07:18:44;;;;;;;15.00;8.05;;;;;;;6.03;60.14;99322.78;4359936;32;32437;-83
2022/02/01 07:21:12;;;;;;;18.90;8.73;;;;;;;6.04;60.39;99321.88;4350191;32;33764;-83
2022/02/01 07:23:40;;;;;;;15.50;8.07;;;;;;;6.00;60.32;99336.00;4376658;32;34208;-83
2022/02/01 07:26:08;;;;;;;18.20;9.05;;;;;;;5.81;61.07;99343.56;4364635;32;32613;-83
2022/02/01 07:28:36;;;;;;;16.35;9.63;;;;;;;5.76;61.06;99354.19;4352085;32;32714;-83
2022/02/01 07:31:04;;;;;;;18.25;8.88;;;;;;;5.50;62.01;99361.97;4342701;32;34359;-83
2022/02/01 07:33:32;;;;;;;19.08;9.65;;;;;;;5.74;61.33;99363.81;4352138;32;33715;-83
2022/02/01 07:36:01;;;;;;;20.27;10.25;;;;;;;5.66;61.68;99355.38;4364030;32;33258;-83
2022/02/01 07:38:29;;;;;;;17.52;9.85;;;;;;;5.91;60.80;99344.97;4363189;32;32609;-83
2022/02/01 07:40:58;;;;;;;24.02;9.70;;;;;;;5.96;60.45;99347.47;4348243;32;33026;-84
2022/02/01 07:43:32;;;;;;;17.73;9.52;;;;;;;5.86;60.93;99355.59;4352139;32;33275;-84
2022/02/01 07:46:06;;;;;;;15.80;8.52;;;;;;;5.96;60.68;99358.81;4362393;32;33399;-83
2022/02/01 07:48:33;;;;;;;19.83;9.45;;;;;;;5.94;60.63;99355.41;4364322;32;32974;-84
2022/02/01 07:51:01;;;;;;;21.30;9.55;;;;;;;5.90;60.59;99359.84;4364064;32;33130;-84
2022/02/01 07:53:29;;;;;;;15.95;9.05;;;;;;;5.57;61.67;99366.13;4350398;32;33951;-84
2022/02/01 07:55:57;;;;;;;18.42;8.10;;;;;;;5.69;61.55;99368.34;4352260;32;32975;-84
2022/02/01 07:58:25;;;;;;;16.58;8.90;;;;;;;5.27;62.44;99374.00;4363612;32;32554;-84
2022/02/01 08:00:52;;;;;;;14.70;7.80;;;;;;;5.55;61.56;99384.47;4352247;32;34047;-84
2022/02/01 08:03:21;;;;;;;13.30;7.28;;;;;;;5.43;61.58;99384.00;4363751;32;33865;-84
2022/02/01 08:05:49;;;;;;;16.08;8.10;;;;;;;5.09;62.38;99392.81;4369909;32;34507;-84
2022/02/01 08:08:17;;;;;;;14.95;8.40;;;;;;;5.63;60.87;99389.50;4364538;32;34592;-84
2022/02/01 08:10:49;;;;;;;14.77;7.28;;;;;;;5.53;60.92;99390.69;4363989;32;33384;-83
2022/02/01 08:21:43;;;;;;;12.52;7.28;;;;;;;6.14;58.68;99396.69;4365726;32;34086;-83
2022/02/01 08:24:11;;;;;;;14.07;7.45;;;;;;;5.93;59.09;99405.22;4346770;32;32987;-83
2022/02/01 08:26:39;;;;;;;16.08;8.50;;;;;;;5.99;58.55;99419.00;4360562;32;33647;-83
2022/02/01 08:29:07;;;;;;;16.00;7.87;;;;;;;5.93;58.91;99426.19;4349968;32;33010;-83
2022/02/01 08:31:47;;;;;;;13.02;8.80;;;;;;;5.96;58.78;99426.09;4373357;32;34666;-83
2022/02/01 08:34:17;;;;;;;17.45;8.02;;;;;;;5.92;59.21;99434.94;4364092;32;33198;-83
2022/02/01 08:36:45;;;;;;;15.05;8.82;;;;;;;6.08;58.87;99437.06;4361850;32;34336;-83
2022/02/01 08:39:13;;;;;;;15.77;9.00;;;;;;;5.64;60.56;99440.97;4337918;32;33201;-83
2022/02/01 08:41:41;;;;;;;17.35;9.25;;;;;;;5.68;60.55;99442.59;4349062;32;32917;-83
2022/02/01 08:44:10;;;;;;;16.65;8.30;;;;;;;6.17;58.52;99441.12;4362378;32;34072;-83
2022/02/01 08:46:37;;;;;;;14.05;7.68;;;;;;;6.47;57.50;99448.94;4357877;32;33624;-83
2022/02/01 08:49:05;;;;;;;18.48;8.55;;;;;;;5.57;60.16;99468.25;4360346;32;33786;-83
2022/02/01 08:51:40;;;;;;;18.40;9.00;;;;;;;6.10;57.83;99463.22;4359744;32;33698;-83
2022/02/01 08:54:21;;;;;;;19.92;8.60;;;;;;;6.17;57.78;99459.47;4361324;32;34287;-83
2022/02/01 08:59:35;;;;;;;13.68;7.65;;;;;;;6.48;55.46;99463.78;4360385;32;33640;-83
2022/02/01 09:02:03;;;;;;;10.18;5.95;;;;;;;6.34;54.77;99467.69;4349957;32;33978;-83
2022/02/01 09:04:31;;;;;;;12.30;6.05;;;;;;;6.41;54.19;99460.50;4356388;32;32284;-83
2022/02/01 09:07:00;;;;;;;13.43;6.82;;;;;;;6.53;52.35;99474.97;4350049;32;33262;-83
2022/02/01 09:09:29;;;;;;;12.27;5.82;;;;;;;6.03;54.55;99478.28;4359791;32;31982;-83
2022/02/01 09:11:57;;;;;;;19.67;7.90;;;;;;;6.15;54.00;99466.56;4350756;32;32575;-83
2022/02/01 09:14:25;;;;;;;21.65;7.97;;;;;;;6.18;54.83;99478.72;4362098;32;33309;-83
2022/02/01 09:16:52;;;;;;;15.57;7.00;;;;;;;6.33;53.32;99473.00;4360833;32;32543;-83
2022/02/01 09:19:20;;;;;;;25.77;8.15;;;;;;;6.39;53.36;99476.25;4358165;32;33484;-83
2022/02/01 09:21:48;;;;;;;13.55;6.45;;;;;;;6.53;53.33;99478.44;4360284;32;32783;-83
2022/02/01 09:24:16;;;;;;;13.80;5.75;;;;;;;6.81;51.45;99478.41;4345822;32;34791;-83
2022/02/01 09:26:43;;;;;;;10.95;5.07;;;;;;;7.15;49.64;99482.50;4338520;32;32596;-83
2022/02/01 09:29:20;;;;;;;16.98;7.97;;;;;;;7.23;49.43;99483.09;4345977;32;33606;-83
2022/02/01 09:31:50;;;;;;;14.30;5.60;;;;;;;7.21;48.60;99484.91;4346797;32;33252;-83
2022/02/01 09:34:19;;;;;;;17.75;5.22;;;;;;;7.22;49.25;99486.62;4365394;32;33933;-83
2022/02/01 09:36:49;;;;;;;10.07;4.60;;;;;;;7.61;48.25;99483.50;4345118;32;31750;-83
2022/02/01 09:39:18;;;;;;;13.50;4.03;;;;;;;7.76;45.62;99476.81;4354927;32;33024;-83
2022/02/01 09:41:46;;;;;;;9.98;3.83;;;;;;;7.44;47.50;99479.69;4351890;32;33972;-83
2022/02/01 09:44:14;;;;;;;11.45;3.12;;;;;;;7.30;45.18;99478.47;4352129;32;34122;-83
2022/02/01 09:46:44;;;;;;;8.43;3.90;;;;;;;7.24;43.41;99484.81;4363811;32;33064;-83
2022/02/01 09:49:17;;;;;;;8.38;2.83;;;;;;;7.10;42.79;99487.06;4349384;32;33037;-83
2022/02/01 09:51:45;;;;;;;;;;;;;;;7.08;44.01;99489.75;4349333;32;33823;-83
2022/02/01 09:54:27;;;;;;;7.97;3.53;;;;;;;7.35;43.07;99492.28;4365944;32;34422;-83
2022/02/01 09:56:58;;;;;;;10.15;3.53;;;;;;;7.76;43.66;99495.22;4364771;32;32482;-83
2022/02/01 09:59:31;;;;;;;13.85;4.37;;;;;;;7.90;44.18;99485.88;4352472;32;32658;-83
2022/02/01 10:02:10;;;;;;;11.43;4.65;;;;;;;7.70;43.96;99480.53;4365132;32;33103;-83
2022/02/01 10:04:39;;;;;;;15.80;4.53;;;;;;;7.98;43.30;99488.25;4352639;32;33767;-83
2022/02/01 10:07:14;;;;;;;12.30;4.28;;;;;;;8.09;42.10;99490.44;4361564;32;32229;-83
2022/02/01 10:09:55;;;;;;;10.23;3.65;;;;;;;7.69;42.74;99507.69;4362920;32;33600;-83
2022/02/01 10:12:28;;;;;;;8.52;2.92;;;;;;;7.13;42.88;99502.72;4336061;32;33264;-83
2022/02/01 10:15:03;;;;;;;19.02;3.70;;;;;;;6.68;43.35;99513.81;4364055;32;34148;-83
2022/02/01 10:17:50;;;;;;;7.53;3.47;;;;;;;6.75;43.32;99512.72;4345717;32;33531;-83
2022/02/01 10:20:18;;;;;;;8.40;3.80;;;;;;;6.52;45.29;99510.84;4349331;32;33638;-83
2022/02/01 10:22:45;;;;;;;10.68;3.12;;;;;;;6.91;44.12;99498.19;4350882;32;33666;-83
2022/02/01 10:25:28;;;;;;;7.20;3.28;;;;;;;6.85;44.24;99506.25;4364690;32;32836;-83
2022/02/01 10:27:59;;;;;;;11.10;3.53;;;;;;;6.91;44.97;99492.94;4374854;32;34231;-83
2022/02/01 10:30:48;;;;;;;8.98;3.90;;;;;;;7.29;43.99;99484.66;4356852;32;32786;-83
2022/02/01 10:36:13;;;;;;;6.72;3.58;;;;;;;7.46;44.20;99489.31;4342895;32;34064;-83
2022/02/01 10:38:41;;;;;;;8.70;3.45;;;;;;;7.70;43.63;99493.66;4357750;32;32466;-83
2022/02/01 10:41:13;;;;;;;13.65;4.00;;;;;;;7.70;43.78;99493.66;4364250;32;33338;-83
2022/02/01 10:43:41;;;;;;;8.95;3.42;;;;;;;7.67;43.39;99493.78;4364089;32;33352;-83
2022/02/01 10:46:12;;;;;;;8.48;3.53;;;;;;;7.63;43.34;99497.41;4376159;32;34746;-83
2022/02/01 10:48:52;;;;;;;10.57;3.92;;;;;;;7.52;43.47;99491.72;4364288;32;33051;-83
2022/02/01 10:51:22;;;;;;;10.07;2.70;;;;;;;7.55;43.66;99494.19;4354411;32;33569;-83
2022/02/01 10:53:56;;;;;;;9.43;2.83;;;;;;;7.74;43.83;99505.78;4359681;32;33449;-83
2022/02/01 10:56:24;;;;;;;20.12;5.30;;;;;;;8.03;42.45;99511.72;4363697;32;34398;-83
2022/02/01 10:58:52;;;;;;;12.25;4.40;;;;;;;8.39;40.91;99510.31;4355584;32;32658;-83
2022/02/01 11:01:23;;;;;;;9.18;4.22;;;;;;;8.26;39.93;99509.06;4364279;32;32831;-82
2022/02/01 11:03:51;;;;;;;7.62;3.00;;;;;;;8.00;40.45;99509.22;4376488;32;33521;-83
2022/02/01 11:06:19;;;;;;;5.50;2.80;;;;;;;7.75;40.61;99510.12;4363653;32;32557;-82
2022/02/01 11:08:47;;;;;;;9.00;3.12;;;;;;;7.62;40.58;99507.06;4364226;32;32294;-83
2022/02/01 11:11:21;;;;;;;8.57;2.60;;;;;;;7.49;41.10;99495.28;4365691;32;33590;-83
2022/02/01 11:13:50;;;;;;;5.57;2.65;;;;;;;7.54;40.66;99503.84;4376822;32;33561;-82
2022/02/01 11:16:21;;;;;;;8.95;2.50;;;;;;;7.62;40.83;99511.47;4364994;32;34618;-83
2022/02/01 11:19:03;;;;;;;8.20;2.97;;;;;;;6.94;42.90;99512.97;4355472;32;32815;-83
2022/02/01 11:21:52;;;;;;;7.60;3.20;;;;;;;7.33;41.48;99515.16;4374975;32;33742;-83
2022/02/01 11:24:31;;;;;;;5.65;2.30;;;;;;;7.27;42.12;99518.00;4376439;32;34477;-83
2022/02/01 11:27:16;;;;;;;11.57;3.55;;;;;;;7.18;42.54;99517.41;4352543;32;34276;-83
2022/02/01 11:32:37;;;;;;;11.20;2.53;;;;;;;7.34;42.27;99512.44;4376046;32;34499;-83
2022/02/01 11:35:13;;;;;;;8.63;2.78;;;;;;;7.69;41.43;99507.69;4364282;32;33607;-83
2022/02/01 11:38:05;;;;;;;5.70;2.40;;;;;;;7.59;40.87;99520.31;4362854;32;35280;-82
2022/02/01 11:40:35;;;;;;;;;;;;;;;7.33;39.98;99510.75;4362987;32;33642;-83
2022/02/01 11:43:24;;;;;;;4.12;2.17;;;;;;;7.31;39.61;99512.59;4365316;32;34889;-83
2022/02/01 11:45:54;;;;;;;5.25;1.83;;;;;;;7.26;40.46;99503.13;4351332;32;34091;-83
2022/02/01 11:48:31;;;;;;;7.95;2.28;;;;;;;7.36;39.72;99500.16;4363998;32;33227;-84
2022/02/01 11:51:02;;;;;;;10.00;3.58;;;;;;;7.35;40.07;99493.16;4364226;32;33379;-83
2022/02/01 11:53:39;;;;;;;9.82;2.72;;;;;;;7.49;40.86;99489.19;4351231;32;32950;-84
2022/02/01 11:56:09;;;;;;;12.18;4.07;;;;;;;7.55;41.48;99488.94;4363033;32;34504;-84
2022/02/01 11:58:46;;;;;;;8.45;2.87;;;;;;;7.52;41.32;99494.34;4363470;32;32884;-83
2022/02/01 12:01:31;;;;;;;11.05;3.10;;;;;;;7.20;41.90;99501.56;4338658;32;32279;-83
2022/02/01 12:04:12;;;;;;;12.30;2.87;;;;;;;7.32;41.65;99509.03;4362784;32;34038;-84
2022/02/01 12:06:46;;;;;;;5.57;2.05;;;;;;;7.55;40.42;99499.47;4362322;32;32473;-84
2022/02/01 12:09:32;;;;;;;9.43;3.35;;;;;;;7.57;40.57;99495.88;4376565;32;34112;-84
2022/02/01 12:12:01;;;;;;;11.73;3.40;;;;;;;7.75;41.07;99489.09;4346694;32;34372;-84
2022/02/01 12:14:29;;;;;;;9.15;2.58;;;;;;;7.43;42.81;99485.88;4363383;32;32952;-83
2022/02/01 12:16:58;;;;;;;9.23;2.40;;;;;;;7.51;42.81;99482.97;4361201;32;34465;-84
2022/02/01 12:19:50;;;;;;;13.43;1.95;;;;;;;7.28;42.67;99486.41;4351182;32;33438;-84
2022/02/01 12:23:06;;;;;;;8.32;3.05;;;;;;;7.23;42.66;99488.34;4365617;32;33804;-83
2022/02/01 12:25:33;;;;;;;9.07;1.85;;;;;;;7.09;42.32;99495.84;4374904;32;33887;-84
2022/02/01 12:28:01;;;;;;;4.30;1.58;;;;;;;7.34;41.11;99501.09;4363055;32;34114;-83
2022/02/01 12:30:29;;;;;;;4.30;1.75;;;;;;;7.63;41.42;99498.28;4363222;32;32537;-83
2022/02/01 12:32:58;;;;;;;6.80;2.25;;;;;;;7.83;41.56;99489.69;4363641;32;33923;-83
2022/02/01 12:35:35;;;;;;;6.85;3.08;;;;;;;7.99;41.60;99499.59;4375398;32;33048;-83
2022/02/01 12:38:26;;;;;;;7.47;2.42;;;;;;;7.97;42.21;99502.28;4352319;32;32617;-83
2022/02/01 12:40:59;;;;;;;6.78;2.95;;;;;;;7.94;42.54;99495.38;4362782;32;34356;-84
2022/02/01 12:43:43;;;;;;;6.12;2.20;;;;;;;7.55;42.97;99507.34;4372339;32;33322;-84
2022/02/01 12:49:32;;;;;;;4.90;1.85;;;;;;;7.54;42.56;99498.59;4362602;32;33939;-83
2022/02/01 12:52:06;;;;;;;8.75;2.50;;;;;;;7.11;43.47;99501.88;4363480;32;34688;-83
2022/02/01 12:54:38;;;;;;;4.00;1.80;;;;;;;7.38;42.79;99498.31;4357903;32;32649;-84
2022/02/01 12:57:09;;;;;;;7.37;2.10;;;;;;;7.49;42.73;99490.03;4350808;32;33882;-83
2022/02/01 12:59:42;;;;;;;6.15;2.33;;;;;;;7.35;42.80;99484.41;4350604;32;32987;-83
2022/02/01 13:02:16;;;;;;;8.90;2.37;;;;;;;7.15;43.80;99499.09;4361116;32;34860;-83
2022/02/01 13:04:51;;;;;;;7.20;2.22;;;;;;;7.16;43.08;99489.47;4358022;32;33003;-83
2022/02/01 13:15:33;;;;;;;11.80;3.05;;;;;;;6.92;45.17;99499.03;4363128;32;33226;-83
2022/02/01 13:20:03;;;;;;;6.70;2.65;;;;;;;7.13;45.50;99503.56;4355814;32;33030;-83
2022/02/01 13:21:23;;;;;;;6.50;2.62;;;;;;;7.48;45.10;99503.22;4361619;32;35286;-83
2022/02/01 13:23:54;;;;;;;13.13;2.90;;;;;;;7.18;45.76;99499.00;4363117;32;34973;-84
2022/02/01 13:26:25;;;;;;;8.98;2.83;;;;;;;6.95;46.29;99503.34;4375104;32;34141;-83
2022/02/01 13:29:10;;;;;;;5.70;2.40;;;;;;;6.74;46.75;99499.63;4371178;32;33574;-83
2022/02/01 13:31:40;;;;;;;6.95;2.50;;;;;;;6.87;47.15;99486.06;4349396;32;33033;-83
2022/02/01 13:34:11;;;;;;;8.38;2.62;;;;;;;7.29;46.24;99488.13;4350436;32;32778;-83
2022/02/01 13:36:49;;;;;;;11.50;2.57;;;;;;;7.40;46.05;99485.97;4354936;32;33599;-83
2022/02/01 13:39:25;;;;;;;6.28;2.72;;;;;;;7.43;45.60;99485.88;4375426;32;34363;-83
2022/02/01 13:41:58;;;;;;;9.60;3.03;;;;;;;7.27;46.67;99495.22;4360532;32;33846;-84
2022/02/01 13:44:52;;;;;;;8.73;2.42;;;;;;;7.16;46.54;99497.34;4375325;32;33857;-83
2022/02/01 13:47:31;;;;;;;8.02;2.80;;;;;;;7.30;45.88;99495.09;4360818;32;32882;-83